Time;durP1;ratioP1;P1;durP2;ratioP2;P2;SDS_P1;SDS_P2;PMS_P1;PMS_P2;Temp;Humidity;BMP_temperature;BMP_pressure;BME280_temperature;BME280_humidity;BME280_pressure;Samples;Min_cycle;Max_cycle;Signal;HPM_P1;HPM_P2
2024/02/19 00:00:19;;;;;;;20.50;17.27;;;21.40;57.10;;;;;;5049797;28;20179;-69
2024/02/19 00:02:45;;;;;;;21.87;16.70;;;21.40;57.00;;;;;;5051311;28;20707;-67
2024/02/19 00:05:11;;;;;;;18.10;14.97;;;21.40;57.00;;;;;;5050375;28;20267;-69
2024/02/19 00:07:36;;;;;;;17.60;14.90;;;21.40;57.00;;;;;;5051256;28;20186;-68
2024/02/19 00:10:02;;;;;;;16.43;14.37;;;21.40;57.00;;;;;;5051326;28;20998;-68
2024/02/19 00:12:28;;;;;;;19.33;15.43;;;21.40;57.00;;;;;;5051142;28;20191;-68
2024/02/19 00:14:54;;;;;;;18.97;14.77;;;21.40;57.00;;;;;;5051526;28;20408;-69
2024/02/19 00:17:20;;;;;;;20.57;14.83;;;21.40;57.00;;;;;;5049695;28;20179;-67
2024/02/19 00:19:45;;;;;;;20.47;16.03;;;21.40;57.00;;;;;;5051645;28;20433;-68
2024/02/19 00:22:11;;;;;;;20.03;16.80;;;21.40;57.00;;;;;;5051087;28;20294;-68
2024/02/19 00:24:39;;;;;;;19.60;15.70;;;21.40;57.00;;;;;;5050994;28;20182;-68
2024/02/19 00:27:04;;;;;;;19.13;15.60;;;21.40;57.00;;;;;;5051005;28;20167;-69
2024/02/19 00:29:30;;;;;;;18.93;16.00;;;21.40;57.00;;;;;;5051062;28;20510;-69
2024/02/19 00:31:56;;;;;;;16.73;14.10;;;21.40;57.00;;;;;;5051080;28;20187;-67
2024/02/19 00:34:21;;;;;;;15.80;13.80;;;21.40;57.00;;;;;;5050960;28;20183;-69
2024/02/19 00:36:47;;;;;;;19.63;14.33;;;21.40;57.00;;;;;;5050788;28;20515;-68
2024/02/19 00:39:13;;;;;;;16.30;14.03;;;21.40;57.00;;;;;;5051124;28;20175;-68
2024/02/19 00:41:38;;;;;;;17.53;14.97;;;21.40;57.00;;;;;;5051168;28;20199;-68
2024/02/19 00:44:04;;;;;;;17.83;15.00;;;21.40;57.00;;;;;;5050639;28;20417;-69
2024/02/19 00:46:30;;;;;;;18.97;14.50;;;21.40;57.00;;;;;;5051000;28;20261;-69
2024/02/19 00:48:55;;;;;;;16.33;14.13;;;21.40;57.00;;;;;;5050870;28;20206;-68
2024/02/19 00:51:21;;;;;;;17.30;14.23;;;21.30;56.90;;;;;;5051295;28;20233;-68
2024/02/19 00:53:46;;;;;;;16.83;14.40;;;21.30;56.90;;;;;;5050998;28;20172;-69
2024/02/19 00:56:12;;;;;;;16.47;14.77;;;21.30;56.90;;;;;;5050858;28;20198;-67
2024/02/19 00:58:38;;;;;;;19.17;14.97;;;21.30;56.90;;;;;;5051081;28;20228;-68
2024/02/19 01:01:03;;;;;;;15.93;14.40;;;21.30;56.90;;;;;;5049262;28;20665;-68
2024/02/19 01:03:29;;;;;;;16.73;13.80;;;21.30;56.90;;;;;;5050830;28;20186;-68
2024/02/19 01:05:54;;;;;;;20.17;15.40;;;21.30;56.90;;;;;;5050607;28;20214;-69
2024/02/19 01:08:20;;;;;;;16.20;14.50;;;21.30;57.00;;;;;;5050579;28;20198;-67
2024/02/19 01:10:46;;;;;;;21.10;16.17;;;21.30;57.00;;;;;;5050746;28;20658;-69
2024/02/19 01:13:11;;;;;;;15.77;14.03;;;21.30;56.90;;;;;;5050752;28;20250;-68
2024/02/19 01:15:37;;;;;;;19.80;14.60;;;21.30;56.90;;;;;;5050854;28;20178;-69
2024/02/19 01:18:03;;;;;;;15.27;13.63;;;21.30;56.90;;;;;;5053742;28;20213;-68
2024/02/19 01:20:28;;;;;;;16.20;14.50;;;21.30;56.90;;;;;;5054136;28;20163;-69
2024/02/19 01:22:54;;;;;;;20.20;14.90;;;21.30;56.90;;;;;;5054067;28;20719;-67
2024/02/19 01:25:20;;;;;;;18.90;14.63;;;21.30;56.90;;;;;;5054091;28;20522;-68
2024/02/19 01:27:45;;;;;;;17.90;13.77;;;21.30;56.90;;;;;;5053739;28;20174;-67
2024/02/19 01:30:11;;;;;;;17.57;13.73;;;21.30;56.90;;;;;;5053674;28;20175;-69
2024/02/19 01:32:37;;;;;;;18.00;14.23;;;21.30;56.90;;;;;;5054400;28;20225;-68
2024/02/19 01:35:03;;;;;;;15.97;14.10;;;21.30;56.90;;;;;;5054037;28;20425;-67
2024/02/19 01:37:29;;;;;;;16.40;14.60;;;21.30;56.90;;;;;;5054051;28;20401;-68
2024/02/19 01:39:55;;;;;;;18.43;14.00;;;21.30;56.90;;;;;;5052869;28;20430;-68
2024/02/19 01:42:22;;;;;;;16.93;13.60;;;21.30;56.90;;;;;;5053719;28;20276;-67
2024/02/19 01:44:48;;;;;;;16.50;14.30;;;21.30;56.90;;;;;;5053972;28;20167;-68
2024/02/19 01:47:14;;;;;;;20.17;14.10;;;21.30;56.90;;;;;;5053492;28;20904;-68
2024/02/19 01:49:39;;;;;;;16.80;13.33;;;21.30;56.90;;;;;;5053806;28;20264;-67
2024/02/19 01:52:06;;;;;;;16.83;13.10;;;21.30;56.90;;;;;;5053524;28;20186;-68
2024/02/19 01:54:33;;;;;;;16.10;13.37;;;21.30;56.90;;;;;;5053707;28;20170;-68
2024/02/19 01:56:59;;;;;;;14.77;12.57;;;21.30;56.90;;;;;;5053248;28;20410;-69
2024/02/19 01:59:26;;;;;;;18.83;14.57;;;21.30;56.90;;;;;;5053169;28;20920;-68
2024/02/19 02:01:54;;;;;;;16.20;13.20;;;21.30;56.90;;;;;;5053058;28;20213;-69
2024/02/19 02:04:21;;;;;;;15.40;13.17;;;21.30;56.90;;;;;;5052911;28;20951;-67
2024/02/19 02:06:48;;;;;;;17.93;14.50;;;21.30;56.90;;;;;;5053567;28;20455;-68
2024/02/19 02:09:13;;;;;;;15.13;13.50;;;21.30;56.90;;;;;;5053380;28;20479;-69
2024/02/19 02:11:39;;;;;;;15.13;12.03;;;21.30;56.90;;;;;;5052894;28;20939;-68
2024/02/19 02:14:05;;;;;;;16.17;13.63;;;21.30;56.90;;;;;;5053258;28;20674;-68
2024/02/19 02:16:30;;;;;;;17.80;12.83;;;21.30;56.90;;;;;;5053234;28;20186;-67
2024/02/19 02:18:56;;;;;;;17.70;15.00;;;21.30;57.00;;;;;;5052953;28;20716;-67
2024/02/19 02:21:22;;;;;;;17.80;13.80;;;21.30;57.00;;;;;;5051309;28;20610;-67
2024/02/19 02:23:48;;;;;;;14.03;12.50;;;21.30;56.90;;;;;;5052838;28;20212;-68
2024/02/19 02:26:14;;;;;;;15.03;13.33;;;21.30;56.90;;;;;;5052846;28;20646;-68
2024/02/19 02:28:39;;;;;;;16.93;13.37;;;21.30;56.90;;;;;;5051680;28;20464;-67
2024/02/19 02:31:06;;;;;;;16.60;13.77;;;21.30;57.40;;;;;;5051534;28;20182;-67
2024/02/19 02:33:31;;;;;;;13.60;12.13;;;21.30;56.90;;;;;;5052658;28;20221;-68
2024/02/19 02:35:57;;;;;;;15.80;12.23;;;21.30;56.90;;;;;;5052965;28;20409;-68
2024/02/19 02:38:23;;;;;;;14.90;12.87;;;21.30;56.90;;;;;;5052542;28;20175;-68
2024/02/19 02:40:48;;;;;;;15.80;12.87;;;21.30;56.90;;;;;;5052361;28;20258;-68
2024/02/19 02:43:14;;;;;;;16.23;13.97;;;21.30;56.90;;;;;;5052377;28;20266;-68
2024/02/19 02:45:40;;;;;;;15.63;13.20;;;21.30;56.90;;;;;;5052875;28;20701;-69
2024/02/19 02:48:06;;;;;;;13.90;12.03;;;21.30;56.90;;;;;;5050889;28;20206;-67
2024/02/19 02:50:32;;;;;;;14.07;12.13;;;21.30;56.90;;;;;;5052529;28;20175;-66
2024/02/19 02:52:58;;;;;;;14.73;12.80;;;21.30;56.90;;;;;;5052087;28;20456;-68
2024/02/19 02:55:23;;;;;;;14.33;12.43;;;21.30;57.00;;;;;;5052372;28;20183;-68
2024/02/19 02:57:49;;;;;;;13.77;12.30;;;21.30;56.90;;;;;;5052098;28;20174;-68
2024/02/19 03:00:15;;;;;;;13.50;12.10;;;21.30;56.90;;;;;;5052208;28;20178;-67
2024/02/19 03:02:40;;;;;;;14.93;12.43;;;21.30;56.90;;;;;;5052226;28;20281;-68
2024/02/19 03:05:07;;;;;;;14.30;11.93;;;21.30;56.90;;;;;;5052460;28;20799;-67
2024/02/19 03:07:33;;;;;;;13.70;12.30;;;21.30;56.90;;;;;;5052180;28;20171;-68
2024/02/19 03:09:58;;;;;;;13.87;11.03;;;21.30;56.90;;;;;;5052318;28;20468;-69
2024/02/19 03:12:24;;;;;;;14.67;13.07;;;21.30;56.90;;;;;;5052097;28;20186;-68
2024/02/19 03:14:49;;;;;;;14.50;12.07;;;21.30;56.90;;;;;;5051987;28;20178;-68
2024/02/19 03:17:15;;;;;;;14.60;11.17;;;21.30;56.90;;;;;;5051835;28;20804;-67
2024/02/19 03:19:43;;;;;;;14.93;12.50;;;21.30;56.90;;;;;;5051461;28;20198;-68
2024/02/19 03:22:10;;;;;;;13.53;12.00;;;21.30;57.00;;;;;;5051882;28;20691;-67
2024/02/19 03:24:36;;;;;;;14.93;12.57;;;21.20;56.90;;;;;;5051769;28;20409;-68
2024/02/19 03:27:04;;;;;;;15.80;14.00;;;21.20;56.90;;;;;;5051760;28;20412;-68
2024/02/19 03:29:29;;;;;;;16.40;13.33;;;21.20;56.90;;;;;;5052197;28;20190;-68
2024/02/19 03:31:55;;;;;;;13.13;11.30;;;21.30;56.90;;;;;;5052087;28;20839;-67
2024/02/19 03:34:21;;;;;;;14.03;12.63;;;21.30;56.90;;;;;;5051855;28;20182;-68
2024/02/19 03:36:50;;;;;;;14.63;12.63;;;21.30;57.00;;;;;;5052028;28;20397;-68
2024/02/19 03:39:17;;;;;;;13.57;12.17;;;21.30;56.90;;;;;;5051758;28;20239;-67
2024/02/19 03:41:42;;;;;;;13.03;11.47;;;21.20;56.90;;;;;;5051635;28;20441;-68
2024/02/19 03:44:08;;;;;;;13.30;11.30;;;21.20;56.90;;;;;;5051646;28;20970;-69
2024/02/19 03:46:34;;;;;;;12.57;11.30;;;21.20;56.90;;;;;;5051475;28;20175;-68
2024/02/19 03:49:00;;;;;;;13.90;11.50;;;21.20;56.90;;;;;;5051346;28;20253;-68
2024/02/19 03:51:25;;;;;;;14.13;12.13;;;21.20;56.90;;;;;;5051648;28;20174;-68
2024/02/19 03:53:51;;;;;;;14.97;11.60;;;21.20;56.90;;;;;;5051552;28;20805;-68
2024/02/19 03:56:17;;;;;;;13.80;12.10;;;21.20;56.90;;;;;;5051253;28;20646;-67
2024/02/19 03:58:43;;;;;;;12.33;11.03;;;21.20;56.90;;;;;;5051363;28;20174;-68
2024/02/19 04:01:09;;;;;;;15.00;12.43;;;21.20;57.40;;;;;;5051331;28;20829;-68
2024/02/19 04:03:34;;;;;;;13.83;11.60;;;21.20;56.90;;;;;;5051377;28;20957;-68
2024/02/19 04:06:00;;;;;;;12.57;11.10;;;21.20;56.90;;;;;;5051513;28;20277;-68
2024/02/19 04:08:25;;;;;;;12.60;10.73;;;21.20;56.90;;;;;;5051424;28;20198;-67
2024/02/19 04:10:51;;;;;;;16.77;11.70;;;21.20;56.90;;;;;;5051260;28;20599;-68
2024/02/19 04:13:17;;;;;;;12.70;11.13;;;21.20;56.90;;;;;;5051439;28;20197;-68
2024/02/19 04:15:42;;;;;;;16.03;13.17;;;21.20;56.90;;;;;;5051282;28;20227;-68
2024/02/19 04:18:08;;;;;;;12.10;10.90;;;21.20;56.90;;;;;;5051063;28;20755;-69
2024/02/19 04:20:33;;;;;;;11.83;10.40;;;21.20;56.90;;;;;;5049575;28;20578;-68
2024/02/19 04:22:59;;;;;;;15.53;12.77;;;21.20;57.40;;;;;;5051420;28;20673;-68
2024/02/19 04:25:25;;;;;;;13.30;10.53;;;21.20;56.80;;;;;;5051041;28;20190;-67
2024/02/19 04:27:51;;;;;;;15.47;12.27;;;21.20;56.90;;;;;;5051180;28;20247;-68
2024/02/19 04:30:17;;;;;;;12.67;11.37;;;21.20;56.90;;;;;;5051288;28;20476;-69
2024/02/19 04:32:43;;;;;;;11.07;9.87;;;21.20;56.90;;;;;;5051129;28;20444;-67
2024/02/19 04:35:08;;;;;;;12.47;11.20;;;21.20;57.40;;;;;;5051148;28;20171;-68
2024/02/19 04:37:34;;;;;;;13.20;11.10;;;21.20;56.90;;;;;;5050978;28;20642;-68
2024/02/19 04:40:00;;;;;;;13.70;12.30;;;21.20;56.90;;;;;;5050859;28;20178;-68
2024/02/19 04:42:26;;;;;;;11.63;10.43;;;21.20;56.90;;;;;;5049620;28;20237;-68
2024/02/19 04:44:51;;;;;;;12.90;11.07;;;21.20;56.90;;;;;;5050627;28;20421;-69
2024/02/19 04:47:17;;;;;;;12.73;9.83;;;21.20;56.90;;;;;;5050975;28;20175;-67
2024/02/19 04:49:43;;;;;;;12.27;10.50;;;21.20;56.80;;;;;;5050778;28;20210;-68
2024/02/19 04:52:08;;;;;;;12.20;10.90;;;21.20;56.90;;;;;;5052883;28;20269;-68
2024/02/19 04:54:34;;;;;;;11.33;10.13;;;21.20;56.90;;;;;;5053136;28;20187;-69
2024/02/19 04:56:59;;;;;;;12.33;10.60;;;21.20;56.90;;;;;;5054871;28;20669;-68
2024/02/19 04:59:25;;;;;;;12.60;10.10;;;21.20;56.90;;;;;;5054602;28;20171;-68
2024/02/19 05:01:53;;;;;;;13.43;10.80;;;21.20;56.80;;;;;;5054853;28;20210;-68
2024/02/19 05:04:19;;;;;;;12.63;11.30;;;21.20;56.80;;;;;;5054510;28;20273;-68
2024/02/19 05:06:44;;;;;;;12.10;10.77;;;21.20;56.90;;;;;;5054608;28;20504;-68
2024/02/19 05:09:10;;;;;;;12.97;11.40;;;21.20;56.80;;;;;;5054279;28;20234;-68
2024/02/19 05:11:36;;;;;;;11.77;10.23;;;21.20;56.90;;;;;;5054341;28;20191;-69
2024/02/19 05:14:02;;;;;;;11.90;10.30;;;21.20;56.90;;;;;;5054027;28;20459;-68
2024/02/19 05:16:27;;;;;;;10.90;9.70;;;21.20;56.90;;;;;;5054107;28;20171;-68
2024/02/19 05:18:53;;;;;;;10.80;9.70;;;21.20;56.90;;;;;;5054206;28;20205;-68
2024/02/19 05:21:18;;;;;;;11.00;9.70;;;21.20;56.90;;;;;;5054305;28;20179;-69
2024/02/19 05:23:45;;;;;;;12.20;9.67;;;21.20;56.90;;;;;;5054097;28;20224;-69
2024/02/19 05:26:10;;;;;;;11.97;10.20;;;21.20;56.90;;;;;;5054279;28;20521;-69
2024/02/19 05:28:37;;;;;;;13.60;11.13;;;21.20;56.90;;;;;;5054514;28;20530;-69
2024/02/19 05:31:03;;;;;;;12.67;10.37;;;21.20;56.90;;;;;;5052463;28;20262;-69
2024/02/19 05:33:29;;;;;;;15.40;11.60;;;21.20;56.90;;;;;;5052800;28;20421;-70
2024/02/19 05:35:54;;;;;;;12.37;10.10;;;21.30;57.00;;;;;;5053943;28;20798;-69
2024/02/19 05:38:20;;;;;;;10.30;9.30;;;21.30;57.00;;;;;;5054179;28;20171;-69
2024/02/19 05:40:45;;;;;;;11.70;10.03;;;21.30;56.90;;;;;;5054345;28;20179;-68
2024/02/19 05:43:11;;;;;;;11.73;10.50;;;21.30;56.90;;;;;;5053915;28;20264;-69
2024/02/19 05:45:37;;;;;;;10.77;9.67;;;21.30;57.00;;;;;;5053013;28;20174;-69
2024/02/19 05:48:03;;;;;;;10.50;8.80;;;21.30;56.90;;;;;;5053009;28;20195;-68
2024/02/19 05:50:30;;;;;;;10.20;9.10;;;21.30;56.90;;;;;;5051478;28;20225;-70
2024/02/19 05:52:56;;;;;;;12.40;10.23;;;21.30;56.90;;;;;;5052725;28;20931;-68
2024/02/19 05:55:22;;;;;;;12.00;9.63;;;21.30;56.90;;;;;;5052942;28;20409;-69
2024/02/19 05:57:48;;;;;;;11.60;9.53;;;21.30;56.90;;;;;;5053145;28;20171;-68
2024/02/19 06:00:14;;;;;;;10.87;9.67;;;21.30;56.90;;;;;;5052752;28;20405;-69
2024/02/19 06:02:43;;;;;;;11.10;9.37;;;21.30;56.90;;;;;;5052513;28;20191;-69
2024/02/19 06:05:10;;;;;;;11.70;9.40;;;21.30;57.00;;;;;;5053049;28;20967;-69
2024/02/19 06:07:36;;;;;;;11.90;10.13;;;21.30;56.90;;;;;;5053612;28;20818;-68
2024/02/19 06:10:02;;;;;;;12.70;9.70;;;21.30;56.90;;;;;;5053752;28;20465;-68
2024/02/19 06:12:28;;;;;;;13.03;10.00;;;21.30;56.90;;;;;;5052581;28;20213;-69
2024/02/19 06:14:53;;;;;;;10.37;8.77;;;21.30;56.90;;;;;;5051276;28;20406;-68
2024/02/19 06:17:19;;;;;;;10.37;9.27;;;21.30;56.90;;;;;;5052790;28;20175;-68
2024/02/19 06:19:44;;;;;;;11.17;9.97;;;21.30;56.90;;;;;;5053335;28;20186;-69
2024/02/19 06:22:10;;;;;;;9.80;8.43;;;21.30;56.90;;;;;;5052186;28;20256;-67
2024/02/19 06:24:36;;;;;;;11.23;9.10;;;21.30;56.90;;;;;;5053283;28;20286;-68
2024/02/19 06:27:01;;;;;;;13.00;9.00;;;21.30;56.80;;;;;;5053039;28;20201;-69
2024/02/19 06:29:27;;;;;;;11.87;9.00;;;21.40;56.80;;;;;;5053335;28;20202;-67
2024/02/19 06:31:54;;;;;;;8.77;7.80;;;21.30;56.70;;;;;;5052741;28;20194;-68
2024/02/19 06:34:21;;;;;;;9.90;8.90;;;21.40;56.80;;;;;;5053048;28;20230;-68
2024/02/19 06:36:46;;;;;;;12.37;8.73;;;21.40;56.70;;;;;;5053442;28;20409;-68
2024/02/19 06:39:12;;;;;;;9.83;8.50;;;21.40;56.70;;;;;;5052577;28;20491;-68
2024/02/19 06:41:37;;;;;;;8.93;8.03;;;21.40;56.70;;;;;;5053279;28;20222;-69
2024/02/19 06:44:03;;;;;;;8.43;7.30;;;21.40;56.70;;;;;;5052640;28;20201;-68
2024/02/19 06:46:29;;;;;;;10.83;8.50;;;21.40;56.70;;;;;;5053314;28;20171;-68
2024/02/19 06:48:58;;;;;;;9.03;8.10;;;21.40;56.70;;;;;;5052485;28;20202;-68
2024/02/19 06:51:23;;;;;;;9.50;8.10;;;21.40;56.60;;;;;;5052365;28;20436;-68
2024/02/19 06:53:49;;;;;;;10.80;9.00;;;21.50;56.70;;;;;;5051029;28;20936;-69
2024/02/19 06:56:15;;;;;;;10.07;8.07;;;21.50;56.70;;;;;;5052430;28;20167;-67
2024/02/19 06:58:40;;;;;;;8.33;7.50;;;21.50;56.70;;;;;;5052946;28;20171;-67
2024/02/19 07:01:06;;;;;;;8.57;7.67;;;21.50;56.70;;;;;;5052451;28;20171;-67
2024/02/19 07:03:31;;;;;;;9.07;8.17;;;21.50;56.70;;;;;;5051773;28;20277;-68
2024/02/19 07:05:57;;;;;;;8.83;7.90;;;21.50;56.70;;;;;;5051964;28;20606;-68
2024/02/19 07:08:23;;;;;;;9.23;8.33;;;21.50;56.70;;;;;;5052054;28;20221;-68
2024/02/19 07:10:48;;;;;;;8.97;7.80;;;21.50;56.70;;;;;;5052210;28;20171;-68
2024/02/19 07:13:14;;;;;;;10.00;8.60;;;21.50;56.70;;;;;;5051952;28;20677;-68
2024/02/19 07:15:39;;;;;;;8.57;7.73;;;21.50;56.60;;;;;;5051397;28;20181;-67
2024/02/19 07:18:05;;;;;;;9.23;8.00;;;21.50;56.60;;;;;;5051996;28;20171;-68
2024/02/19 07:20:31;;;;;;;9.17;8.17;;;21.50;56.60;;;;;;5051774;28;20182;-67
2024/02/19 07:22:56;;;;;;;9.60;8.10;;;21.50;56.60;;;;;;5051814;28;20674;-68
2024/02/19 07:25:22;;;;;;;7.93;7.10;;;21.50;56.70;;;;;;5034199;28;20186;-68
2024/02/19 07:27:48;;;;;;;9.33;7.80;;;21.50;56.60;;;;;;5051759;28;20171;-69
2024/02/19 07:30:13;;;;;;;9.00;8.10;;;21.50;56.60;;;;;;5051489;28;20545;-69
2024/02/19 07:32:39;;;;;;;8.90;7.70;;;21.60;56.70;;;;;;5051338;28;20199;-69
2024/02/19 07:35:05;;;;;;;8.33;7.30;;;21.60;56.70;;;;;;5050024;28;20174;-68
2024/02/19 07:37:31;;;;;;;7.73;6.93;;;21.60;56.70;;;;;;5051587;28;20175;-68
2024/02/19 07:39:56;;;;;;;11.23;8.00;;;21.60;56.60;;;;;;5051317;28;20416;-67
2024/02/19 07:42:22;;;;;;;8.57;7.67;;;21.60;56.70;;;;;;5051721;28;20249;-67
2024/02/19 07:44:48;;;;;;;8.60;7.10;;;21.60;56.70;;;;;;5052118;28;20258;-68
2024/02/19 07:47:13;;;;;;;8.07;7.27;;;21.60;56.70;;;;;;5051390;28;20175;-68
2024/02/19 07:49:39;;;;;;;8.20;7.40;;;21.60;56.70;;;;;;5050876;28;20612;-68
2024/02/19 07:52:05;;;;;;;9.57;7.67;;;21.60;56.70;;;;;;5051245;28;20187;-68
2024/02/19 07:54:30;;;;;;;7.73;6.90;;;21.60;56.60;;;;;;5050357;28;20232;-68
2024/02/19 07:56:56;;;;;;;9.70;7.50;;;21.60;56.70;;;;;;5050178;28;20179;-68
2024/02/19 07:59:22;;;;;;;9.70;7.50;;;21.60;56.70;;;;;;5052057;28;20171;-68
2024/02/19 08:01:48;;;;;;;9.40;8.17;;;21.60;56.60;;;;;;5051155;28;20183;-67
2024/02/19 08:04:13;;;;;;;9.60;8.30;;;21.60;56.70;;;;;;5051805;28;20447;-67
2024/02/19 08:06:39;;;;;;;8.97;7.83;;;21.60;56.60;;;;;;5051520;28;20179;-68
2024/02/19 08:09:05;;;;;;;7.90;7.10;;;21.60;56.60;;;;;;5051409;28;20191;-68
2024/02/19 08:11:32;;;;;;;11.07;8.13;;;21.60;56.70;;;;;;5051959;28;20183;-68
2024/02/19 08:13:57;;;;;;;7.33;6.63;;;21.60;56.70;;;;;;5051470;28;20472;-67
2024/02/19 08:16:23;;;;;;;9.30;7.37;;;21.60;56.70;;;;;;5051867;28;20397;-69
2024/02/19 08:18:49;;;;;;;7.47;6.73;;;21.60;56.60;;;;;;5051349;28;20248;-67
2024/02/19 08:21:14;;;;;;;7.30;6.50;;;21.60;56.70;;;;;;5051461;28;20445;-69
2024/02/19 08:23:40;;;;;;;7.93;7.07;;;21.60;56.70;;;;;;5051821;28;20183;-68
2024/02/19 08:26:06;;;;;;;7.90;7.10;;;21.60;56.60;;;;;;5052061;28;20244;-67
2024/02/19 08:28:31;;;;;;;7.50;6.80;;;21.60;56.60;;;;;;5055100;28;20206;-68
2024/02/19 08:30:57;;;;;;;7.30;6.50;;;21.60;56.60;;;;;;5055696;28;20670;-68
2024/02/19 08:33:23;;;;;;;8.43;7.20;;;21.70;56.70;;;;;;5055018;28;20254;-69
2024/02/19 08:35:50;;;;;;;8.63;6.73;;;21.60;56.70;;;;;;5055109;28;20744;-68
2024/02/19 08:38:15;;;;;;;8.10;7.10;;;21.60;56.70;;;;;;5055041;28;20179;-67
2024/02/19 08:40:41;;;;;;;7.63;6.83;;;21.60;56.70;;;;;;5055395;28;20440;-68
2024/02/19 08:43:10;;;;;;;7.80;6.23;;;21.60;56.60;;;;;;5054901;28;20202;-68
2024/02/19 08:45:36;;;;;;;8.93;7.27;;;21.60;56.70;;;;;;5055109;28;20546;-67
2024/02/19 08:48:02;;;;;;;8.30;7.10;;;21.60;56.70;;;;;;5054700;28;20417;-68
2024/02/19 08:50:27;;;;;;;8.10;7.00;;;21.60;56.70;;;;;;5053289;28;20218;-68
2024/02/19 08:52:53;;;;;;;8.60;7.80;;;21.60;56.70;;;;;;5054388;28;20257;-67
2024/02/19 08:55:18;;;;;;;8.60;7.40;;;21.70;56.80;;;;;;5054823;28;20174;-68
2024/02/19 08:57:44;;;;;;;8.40;7.37;;;21.70;56.80;;;;;;5053512;28;20572;-68
2024/02/19 09:00:11;;;;;;;8.00;6.63;;;21.70;56.80;;;;;;5054833;28;20179;-69
2024/02/19 09:02:42;;;;;;;10.27;7.60;;;21.70;56.80;;;;;;5053392;28;20206;-68
2024/02/19 09:05:09;;;;;;;8.00;7.07;;;21.70;56.80;;;;;;5054478;28;20934;-67
2024/02/19 09:07:35;;;;;;;8.47;7.40;;;21.70;56.80;;;;;;5054752;28;20478;-68
2024/02/19 09:10:01;;;;;;;8.57;7.67;;;21.70;56.80;;;;;;5052887;28;20932;-69
2024/02/19 09:12:26;;;;;;;7.23;6.30;;;21.70;56.80;;;;;;5054503;28;20433;-67
2024/02/19 09:14:55;;;;;;;9.17;7.03;;;21.70;56.80;;;;;;5054601;28;20179;-68
2024/02/19 09:17:22;;;;;;;8.70;6.30;;;21.70;56.80;;;;;;5052927;28;20177;-68
2024/02/19 09:19:48;;;;;;;7.10;6.40;;;21.70;56.90;;;;;;5052890;28;20798;-68
2024/02/19 09:22:14;;;;;;;8.17;6.77;;;21.70;56.90;;;;;;5052940;28;20437;-68
2024/02/19 09:24:44;;;;;;;8.03;6.73;;;21.70;56.90;;;;;;5052975;28;20504;-66
2024/02/19 09:27:09;;;;;;;8.17;7.33;;;21.70;56.90;;;;;;5052615;28;20251;-68
2024/02/19 09:29:35;;;;;;;8.30;6.47;;;21.70;57.00;;;;;;5052932;28;20489;-68
2024/02/19 09:32:01;;;;;;;8.20;7.00;;;21.70;57.00;;;;;;5053220;28;20195;-68
2024/02/19 09:34:27;;;;;;;7.40;6.63;;;21.70;57.00;;;;;;5052911;28;20534;-68
2024/02/19 09:36:52;;;;;;;6.77;6.07;;;21.70;57.00;;;;;;5052237;28;20178;-68
2024/02/19 09:39:18;;;;;;;7.33;6.50;;;21.70;57.00;;;;;;5052707;28;20409;-68
2024/02/19 09:41:44;;;;;;;7.80;7.00;;;21.70;57.00;;;;;;5052711;28;20223;-69
2024/02/19 09:44:10;;;;;;;7.97;6.90;;;21.70;57.10;;;;;;5053099;28;20186;-67
2024/02/19 09:46:36;;;;;;;8.90;6.90;;;21.70;57.10;;;;;;5052816;28;20417;-66
2024/02/19 09:49:02;;;;;;;7.50;6.63;;;21.70;57.10;;;;;;5052293;28;20661;-68
2024/02/19 09:51:29;;;;;;;6.77;6.07;;;21.70;57.00;;;;;;5052592;28;20167;-68
2024/02/19 09:53:55;;;;;;;6.63;5.93;;;21.70;57.00;;;;;;5052488;28;20467;-68
2024/02/19 09:56:26;;;;;;;7.43;6.73;;;21.70;57.00;;;;;;5052947;28;20472;-68
2024/02/19 09:58:52;;;;;;;7.40;6.60;;;21.70;57.00;;;;;;5052883;28;20422;-69
2024/02/19 10:01:18;;;;;;;6.93;6.33;;;21.70;57.00;;;;;;5052392;28;20440;-68
2024/02/19 10:03:44;;;;;;;6.87;5.57;;;21.70;57.00;;;;;;5051907;28;20405;-68
2024/02/19 10:06:10;;;;;;;6.60;6.00;;;21.70;57.00;;;;;;5051430;28;20425;-68
2024/02/19 10:08:36;;;;;;;6.23;5.63;;;21.70;57.00;;;;;;5052084;28;20823;-67
2024/02/19 10:11:12;;;;;;;7.53;6.77;;;21.70;57.00;;;;;;5052552;28;20901;-68
2024/02/19 10:13:41;;;;;;;8.50;6.27;;;21.70;57.00;;;;;;5053484;28;20931;-68
2024/02/19 10:16:11;;;;;;;7.27;6.23;;;21.70;57.00;;;;;;5053090;28;20829;-68
2024/02/19 10:18:38;;;;;;;8.17;6.77;;;21.70;57.00;;;;;;4966607;28;2509938;-65
2024/02/19 10:21:04;;;;;;;8.10;6.60;;;21.70;57.00;;;;;;5053866;28;20653;-68
2024/02/19 10:23:29;;;;;;;6.90;6.20;;;21.70;57.00;;;;;;5053953;28;20939;-69
2024/02/19 10:25:55;;;;;;;7.70;6.57;;;21.70;57.00;;;;;;5052003;28;20434;-67
2024/02/19 10:28:22;;;;;;;7.27;6.50;;;21.70;57.00;;;;;;5053313;28;20211;-69
2024/02/19 10:30:48;;;;;;;6.30;5.70;;;21.70;57.10;;;;;;5053004;28;20176;-68
2024/02/19 10:33:14;;;;;;;7.13;5.93;;;21.70;57.10;;;;;;5052610;28;20959;-68
2024/02/19 10:35:41;;;;;;;9.40;7.33;;;21.70;57.10;;;;;;5053072;28;20420;-68
2024/02/19 10:38:07;;;;;;;6.60;5.40;;;21.70;57.10;;;;;;5053145;28;20425;-68
2024/02/19 10:40:33;;;;;;;7.60;6.70;;;21.70;57.10;;;;;;5052552;28;20479;-67
2024/02/19 10:43:00;;;;;;;7.13;6.07;;;21.70;57.10;;;;;;5053222;28;20433;-69
2024/02/19 10:45:26;;;;;;;7.93;5.93;;;21.70;57.10;;;;;;5052833;28;20241;-68
2024/02/19 10:47:53;;;;;;;8.70;6.90;;;21.70;57.10;;;;;;5052723;28;20405;-68
2024/02/19 10:50:20;;;;;;;7.60;6.77;;;21.70;57.10;;;;;;5051993;28;20171;-67
2024/02/19 10:52:46;;;;;;;6.87;6.17;;;21.70;57.10;;;;;;5052898;28;20421;-68
2024/02/19 10:55:16;;;;;;;7.30;6.57;;;21.70;57.10;;;;;;5052523;28;20401;-68
2024/02/19 10:57:53;;;;;;;7.30;6.60;;;21.70;57.10;;;;;;5052806;28;20421;-69
2024/02/19 11:00:25;;;;;;;6.10;5.50;;;21.70;57.10;;;;;;5052759;28;20410;-68
2024/02/19 11:03:04;;;;;;;7.33;6.20;;;21.70;57.10;;;;;;5052297;28;20814;-69
2024/02/19 11:05:34;;;;;;;6.17;5.57;;;21.70;57.10;;;;;;5052547;28;20401;-67
2024/02/19 11:08:00;;;;;;;7.37;6.60;;;21.70;57.10;;;;;;5052216;28;20408;-68
2024/02/19 11:10:38;;;;;;;6.83;5.70;;;21.70;57.20;;;;;;5052399;28;20461;-69
2024/02/19 11:13:07;;;;;;;7.10;5.80;;;21.70;57.20;;;;;;5052393;28;20445;-69
2024/02/19 11:15:32;;;;;;;6.03;5.20;;;21.70;57.20;;;;;;5052329;28;20410;-66
2024/02/19 11:18:11;;;;;;;6.27;5.67;;;21.70;57.20;;;;;;5052240;28;20486;-67
2024/02/19 11:20:38;;;;;;;6.77;6.07;;;21.70;57.20;;;;;;5052283;28;20224;-68
2024/02/19 11:23:04;;;;;;;7.33;6.30;;;21.70;57.20;;;;;;5051755;28;20917;-66
2024/02/19 11:25:29;;;;;;;6.67;5.90;;;21.70;57.20;;;;;;5051894;28;20779;-68
2024/02/19 11:27:55;;;;;;;6.27;5.63;;;21.70;57.20;;;;;;5051997;28;20413;-69
2024/02/19 11:30:21;;;;;;;6.57;5.87;;;21.70;57.20;;;;;;5051591;28;20194;-69
2024/02/19 11:32:47;;;;;;;8.27;5.80;;;21.70;57.20;;;;;;5051823;28;20278;-68
2024/02/19 11:35:14;;;;;;;7.90;6.10;;;21.70;57.20;;;;;;5050845;28;20183;-69
2024/02/19 11:37:39;;;;;;;5.83;5.23;;;21.70;57.20;;;;;;5052260;28;20456;-68
2024/02/19 11:40:06;;;;;;;5.80;5.20;;;21.70;57.20;;;;;;5051813;28;20452;-68
2024/02/19 11:42:32;;;;;;;5.80;5.20;;;21.70;57.20;;;;;;5051993;28;20282;-69
2024/02/19 11:44:58;;;;;;;5.87;5.27;;;21.70;57.20;;;;;;5052035;28;20440;-68
2024/02/19 11:47:25;;;;;;;5.90;4.70;;;21.70;57.20;;;;;;5051688;28;20420;-69
2024/02/19 11:49:52;;;;;;;7.10;5.20;;;21.70;57.20;;;;;;5051860;28;20878;-68
2024/02/19 11:52:17;;;;;;;7.53;5.60;;;21.70;57.10;;;;;;5051907;28;20425;-69
2024/02/19 11:54:43;;;;;;;6.20;5.63;;;21.70;57.20;;;;;;5051232;28;20424;-68
2024/02/19 11:57:09;;;;;;;6.20;5.50;;;21.70;57.10;;;;;;5051397;28;20688;-68
2024/02/19 11:59:38;;;;;;;6.20;5.37;;;21.70;57.10;;;;;;5051582;28;20552;-67
2024/02/19 12:02:08;;;;;;;5.60;4.73;;;21.70;57.10;;;;;;5051149;28;20445;-67
2024/02/19 12:04:37;;;;;;;5.90;5.10;;;21.70;57.10;;;;;;5051506;28;20527;-68
2024/02/19 12:07:03;;;;;;;5.97;5.37;;;21.70;57.20;;;;;;5051099;28;20473;-68
2024/02/19 12:09:29;;;;;;;6.93;5.60;;;21.70;57.20;;;;;;5051002;28;20544;-68
2024/02/19 12:11:54;;;;;;;6.00;5.40;;;21.70;57.30;;;;;;5051352;28;20667;-68
2024/02/19 12:14:20;;;;;;;5.60;5.00;;;21.70;57.20;;;;;;5051180;28;20257;-69
2024/02/19 12:16:49;;;;;;;6.50;4.97;;;21.70;57.20;;;;;;5051224;28;20248;-69
2024/02/19 12:19:15;;;;;;;5.33;4.43;;;21.70;57.10;;;;;;5050110;28;20205;-69
2024/02/19 12:21:42;;;;;;;5.77;4.80;;;21.70;57.10;;;;;;5051565;28;20959;-68
2024/02/19 12:24:10;;;;;;;6.13;5.53;;;21.70;57.20;;;;;;5051550;28;20175;-69
2024/02/19 12:26:37;;;;;;;6.23;5.43;;;21.70;57.20;;;;;;5050294;28;20491;-70
2024/02/19 12:29:02;;;;;;;6.23;5.57;;;21.70;57.20;;;;;;5051422;28;20451;-70